sensor_id;sensor_type;location;lat;lon;timestamp;pressure;altitude;pressure_sealevel;temperature;humidity
21401;BME280;18038;50.166;18.908;2022-11-21T00:00:50;97237.22;;;-0.11;79.17
21401;BME280;18038;50.166;18.908;2022-11-21T00:02:59;97234.31;;;-0.17;79.20
21401;BME280;18038;50.166;18.908;2022-11-21T00:05:09;97238.72;;;-0.18;79.41
21401;BME280;18038;50.166;18.908;2022-11-21T00:07:15;97228.66;;;-0.13;78.91
21401;BME280;18038;50.166;18.908;2022-11-21T00:09:25;97229.63;;;-0.14;78.95
21401;BME280;18038;50.166;18.908;2022-11-21T00:11:31;97221.78;;;-0.24;79.50
21401;BME280;18038;50.166;18.908;2022-11-21T00:13:37;97206.50;;;-0.18;79.26
21401;BME280;18038;50.166;18.908;2022-11-21T00:15:45;97204.53;;;-0.07;79.04
21401;BME280;18038;50.166;18.908;2022-11-21T00:18:01;97205.50;;;-0.17;78.95
21401;BME280;18038;50.166;18.908;2022-11-21T00:20:20;97196.41;;;-0.23;79.03
21401;BME280;18038;50.166;18.908;2022-11-21T00:22:36;97210.75;;;-0.08;78.74
21401;BME280;18038;50.166;18.908;2022-11-21T00:24:42;97216.25;;;-0.01;78.01
21401;BME280;18038;50.166;18.908;2022-11-21T00:26:54;97203.16;;;-0.01;77.90
21401;BME280;18038;50.166;18.908;2022-11-21T00:29:07;97207.16;;;-0.16;77.68
21401;BME280;18038;50.166;18.908;2022-11-21T00:31:26;97198.34;;;-0.15;78.35
21401;BME280;18038;50.166;18.908;2022-11-21T00:33:36;97200.00;;;-0.14;78.22
21401;BME280;18038;50.166;18.908;2022-11-21T00:35:46;97190.22;;;-0.22;78.32
21401;BME280;18038;50.166;18.908;2022-11-21T00:37:52;97197.13;;;-0.21;78.50
21401;BME280;18038;50.166;18.908;2022-11-21T00:40:06;97192.16;;;-0.24;78.27
21401;BME280;18038;50.166;18.908;2022-11-21T00:42:22;97194.91;;;-0.16;78.12
21401;BME280;18038;50.166;18.908;2022-11-21T00:44:34;97185.78;;;-0.22;77.89
21401;BME280;18038;50.166;18.908;2022-11-21T00:46:40;97185.94;;;-0.23;78.14
21401;BME280;18038;50.166;18.908;2022-11-21T00:48:52;97181.69;;;-0.24;78.21
21401;BME280;18038;50.166;18.908;2022-11-21T00:51:01;97181.69;;;-0.24;78.39
21401;BME280;18038;50.166;18.908;2022-11-21T00:53:14;97177.13;;;-0.42;78.94
21401;BME280;18038;50.166;18.908;2022-11-21T00:55:27;97178.50;;;-0.47;78.90
21401;BME280;18038;50.166;18.908;2022-11-21T00:57:38;97174.34;;;-0.59;79.52
21401;BME280;18038;50.166;18.908;2022-11-21T00:59:44;97172.84;;;-0.52;79.86
21401;BME280;18038;50.166;18.908;2022-11-21T01:01:51;97179.28;;;-0.56;79.70
21401;BME280;18038;50.166;18.908;2022-11-21T01:03:58;97170.91;;;-0.60;79.96
21401;BME280;18038;50.166;18.908;2022-11-21T01:06:07;97172.81;;;-0.72;80.30
21401;BME280;18038;50.166;18.908;2022-11-21T01:08:15;97173.50;;;-0.70;80.38
21401;BME280;18038;50.166;18.908;2022-11-21T01:10:21;97167.59;;;-0.72;80.16
21401;BME280;18038;50.166;18.908;2022-11-21T01:12:27;97160.41;;;-0.70;80.10
21401;BME280;18038;50.166;18.908;2022-11-21T01:14:34;97161.78;;;-0.85;80.60
21401;BME280;18038;50.166;18.908;2022-11-21T01:16:40;97161.50;;;-0.82;80.97
21401;BME280;18038;50.166;18.908;2022-11-21T01:18:47;97154.19;;;-0.88;80.90
21401;BME280;18038;50.166;18.908;2022-11-21T01:20:58;97157.75;;;-0.89;80.88
21401;BME280;18038;50.166;18.908;2022-11-21T01:23:07;97149.91;;;-0.89;81.09
21401;BME280;18038;50.166;18.908;2022-11-21T01:25:13;97147.31;;;-0.70;80.40
21401;BME280;18038;50.166;18.908;2022-11-21T01:27:19;97144.03;;;-0.72;80.85
21401;BME280;18038;50.166;18.908;2022-11-21T01:29:27;97137.97;;;-0.62;80.20
21401;BME280;18038;50.166;18.908;2022-11-21T01:31:33;97142.53;;;-0.65;80.20
21401;BME280;18038;50.166;18.908;2022-11-21T01:33:41;97140.59;;;-0.62;80.01
21401;BME280;18038;50.166;18.908;2022-11-21T01:35:47;97137.88;;;-0.61;79.92
21401;BME280;18038;50.166;18.908;2022-11-21T01:37:53;97136.47;;;-0.65;79.69
21401;BME280;18038;50.166;18.908;2022-11-21T01:40:03;97142.25;;;-0.71;80.06
21401;BME280;18038;50.166;18.908;2022-11-21T01:42:11;97140.88;;;-0.66;79.92
21401;BME280;18038;50.166;18.908;2022-11-21T01:44:20;97143.91;;;-0.60;79.36
21401;BME280;18038;50.166;18.908;2022-11-21T01:46:29;97131.94;;;-0.63;79.10
21401;BME280;18038;50.166;18.908;2022-11-21T01:48:54;97147.47;;;-0.61;78.90
21401;BME280;18038;50.166;18.908;2022-11-21T01:51:23;97146.81;;;-0.63;78.84
21401;BME280;18038;50.166;18.908;2022-11-21T01:53:38;97149.16;;;-0.60;78.52
21401;BME280;18038;50.166;18.908;2022-11-21T01:55:51;97143.38;;;-0.54;78.71
21401;BME280;18038;50.166;18.908;2022-11-21T01:57:57;97143.91;;;-0.51;78.44
21401;BME280;18038;50.166;18.908;2022-11-21T02:00:12;97136.75;;;-0.58;78.40
21401;BME280;18038;50.166;18.908;2022-11-21T02:02:27;97137.44;;;-0.66;78.80
21401;BME280;18038;50.166;18.908;2022-11-21T02:04:41;97138.94;;;-0.54;78.66
21401;BME280;18038;50.166;18.908;2022-11-21T02:06:50;97138.66;;;-0.51;78.37
21401;BME280;18038;50.166;18.908;2022-11-21T02:08:58;97135.94;;;-0.49;77.44
21401;BME280;18038;50.166;18.908;2022-11-21T02:11:15;97140.34;;;-0.40;77.17
21401;BME280;18038;50.166;18.908;2022-11-21T02:13:27;97138.69;;;-0.31;76.63
21401;BME280;18038;50.166;18.908;2022-11-21T02:15:37;97139.63;;;-0.32;76.44
21401;BME280;18038;50.166;18.908;2022-11-21T02:17:42;97134.16;;;-0.29;76.28
21401;BME280;18038;50.166;18.908;2022-11-21T02:19:54;97147.38;;;-0.31;76.08
21401;BME280;18038;50.166;18.908;2022-11-21T02:22:09;97137.03;;;-0.42;76.70
21401;BME280;18038;50.166;18.908;2022-11-21T02:24:30;97134.28;;;-0.50;76.90
21401;BME280;18038;50.166;18.908;2022-11-21T02:26:47;97128.19;;;-0.51;76.90
21401;BME280;18038;50.166;18.908;2022-11-21T02:39:44;97110.03;;;-0.33;75.97
21401;BME280;18038;50.166;18.908;2022-11-21T02:44:14;97113.91;;;-0.37;75.53
21401;BME280;18038;50.166;18.908;2022-11-21T02:46:28;97110.19;;;-0.44;75.81
21401;BME280;18038;50.166;18.908;2022-11-21T02:48:37;97110.47;;;-0.47;75.91
21401;BME280;18038;50.166;18.908;2022-11-21T02:50:45;97111.56;;;-0.50;76.02
21401;BME280;18038;50.166;18.908;2022-11-21T02:52:55;97119.41;;;-0.40;75.88
21401;BME280;18038;50.166;18.908;2022-11-21T02:55:01;97119.56;;;-0.32;75.71
21401;BME280;18038;50.166;18.908;2022-11-21T02:57:07;97105.06;;;-0.36;75.50
21401;BME280;18038;50.166;18.908;2022-11-21T02:59:16;97118.84;;;-0.34;75.58
21401;BME280;18038;50.166;18.908;2022-11-21T03:01:22;97120.22;;;-0.30;75.02
21401;BME280;18038;50.166;18.908;2022-11-21T03:03:28;97113.63;;;-0.34;75.19
21401;BME280;18038;50.166;18.908;2022-11-21T03:05:39;97115.81;;;-0.39;75.05
21401;BME280;18038;50.166;18.908;2022-11-21T03:07:46;97107.16;;;-0.49;75.27
21401;BME280;18038;50.166;18.908;2022-11-21T03:09:52;97101.63;;;-0.46;75.35
21401;BME280;18038;50.166;18.908;2022-11-21T03:12:04;97097.78;;;-0.52;75.42
21401;BME280;18038;50.166;18.908;2022-11-21T03:14:11;97101.38;;;-0.53;75.55
21401;BME280;18038;50.166;18.908;2022-11-21T03:16:19;97109.34;;;-0.64;76.12
21401;BME280;18038;50.166;18.908;2022-11-21T03:18:26;97102.75;;;-0.68;76.41
21401;BME280;18038;50.166;18.908;2022-11-21T03:23:06;97105.28;;;-1.17;77.41
21401;BME280;18038;50.166;18.908;2022-11-21T03:25:16;97106.00;;;-1.76;80.00
21401;BME280;18038;50.166;18.908;2022-11-21T03:27:28;97099.16;;;-1.98;81.28
21401;BME280;18038;50.166;18.908;2022-11-21T03:29:40;97092.97;;;-2.18;81.90
21401;BME280;18038;50.166;18.908;2022-11-21T03:31:53;97087.66;;;-2.16;82.76
21401;BME280;18038;50.166;18.908;2022-11-21T03:34:11;97094.03;;;-2.30;82.95
21401;BME280;18038;50.166;18.908;2022-11-21T03:36:21;97085.28;;;-2.41;83.71
21401;BME280;18038;50.166;18.908;2022-11-21T03:38:35;97089.03;;;-2.54;84.20
21401;BME280;18038;50.166;18.908;2022-11-21T03:40:42;97090.94;;;-2.56;84.50
21401;BME280;18038;50.166;18.908;2022-11-21T03:42:47;97085.84;;;-2.58;84.83
21401;BME280;18038;50.166;18.908;2022-11-21T03:44:54;97082.53;;;-2.60;84.82
21401;BME280;18038;50.166;18.908;2022-11-21T03:47:00;97074.25;;;-2.65;84.95
21401;BME280;18038;50.166;18.908;2022-11-21T03:49:06;97080.81;;;-2.50;84.62
21401;BME280;18038;50.166;18.908;2022-11-21T03:51:17;97079.19;;;-2.51;84.87
21401;BME280;18038;50.166;18.908;2022-11-21T03:53:24;97070.00;;;-2.45;84.77
21401;BME280;18038;50.166;18.908;2022-11-21T03:55:33;97056.59;;;-2.41;84.42
21401;BME280;18038;50.166;18.908;2022-11-21T03:57:40;97054.56;;;-2.37;84.01
21401;BME280;18038;50.166;18.908;2022-11-21T03:59:45;97053.81;;;-2.28;83.74
21401;BME280;18038;50.166;18.908;2022-11-21T04:06:23;97042.00;;;-2.01;83.07
21401;BME280;18038;50.166;18.908;2022-11-21T04:08:33;97043.47;;;-2.29;83.54
21401;BME280;18038;50.166;18.908;2022-11-21T04:10:45;97045.13;;;-2.28;83.21
21401;BME280;18038;50.166;18.908;2022-11-21T04:12:51;97044.75;;;-2.45;83.33
21401;BME280;18038;50.166;18.908;2022-11-21T04:14:58;97041.88;;;-2.42;83.25
21401;BME280;18038;50.166;18.908;2022-11-21T04:17:04;97038.34;;;-2.61;83.48
21401;BME280;18038;50.166;18.908;2022-11-21T04:19:10;97035.13;;;-2.65;83.93
21401;BME280;18038;50.166;18.908;2022-11-21T04:21:17;97027.28;;;-2.54;83.52
21401;BME280;18038;50.166;18.908;2022-11-21T04:23:26;97018.47;;;-2.53;83.35
21401;BME280;18038;50.166;18.908;2022-11-21T04:25:33;97023.88;;;-2.45;83.15
21401;BME280;18038;50.166;18.908;2022-11-21T04:27:39;97020.63;;;-2.37;82.72
21401;BME280;18038;50.166;18.908;2022-11-21T04:29:45;97014.16;;;-2.43;82.31
21401;BME280;18038;50.166;18.908;2022-11-21T04:31:51;97010.19;;;-2.37;82.72
21401;BME280;18038;50.166;18.908;2022-11-21T04:33:58;97024.78;;;-2.34;81.87
21401;BME280;18038;50.166;18.908;2022-11-21T04:36:04;97011.16;;;-2.38;82.35
21401;BME280;18038;50.166;18.908;2022-11-21T07:26:45;96940.41;;;-2.45;85.27
21401;BME280;18038;50.166;18.908;2022-11-21T07:28:51;96940.41;;;-2.45;85.31
21401;BME280;18038;50.166;18.908;2022-11-21T07:30:59;96941.75;;;-2.50;85.57
21401;BME280;18038;50.166;18.908;2022-11-21T07:33:19;96942.91;;;-2.43;85.72
21401;BME280;18038;50.166;18.908;2022-11-21T07:35:26;96936.19;;;-2.36;85.46
21401;BME280;18038;50.166;18.908;2022-11-21T07:37:37;96942.81;;;-2.32;85.45
21401;BME280;18038;50.166;18.908;2022-11-21T07:39:43;96935.34;;;-2.46;85.53
21401;BME280;18038;50.166;18.908;2022-11-21T07:41:52;96936.25;;;-2.26;85.50
21401;BME280;18038;50.166;18.908;2022-11-21T07:43:58;96933.69;;;-2.16;85.11
21401;BME280;18038;50.166;18.908;2022-11-21T07:46:31;96935.09;;;-2.03;84.74
21401;BME280;18038;50.166;18.908;2022-11-21T07:48:38;96941.03;;;-2.01;84.58
21401;BME280;18038;50.166;18.908;2022-11-21T07:50:44;96937.44;;;-2.00;84.36
21401;BME280;18038;50.166;18.908;2022-11-21T07:52:49;96927.81;;;-2.09;84.68
21401;BME280;18038;50.166;18.908;2022-11-21T07:54:56;96917.72;;;-2.23;85.31
21401;BME280;18038;50.166;18.908;2022-11-21T07:57:06;96926.25;;;-2.21;85.32
21401;BME280;18038;50.166;18.908;2022-11-21T07:59:12;96918.31;;;-2.10;85.12
21401;BME280;18038;50.166;18.908;2022-11-21T08:01:28;96911.50;;;-2.01;85.00
21401;BME280;18038;50.166;18.908;2022-11-21T08:03:35;96912.47;;;-1.92;84.71
21401;BME280;18038;50.166;18.908;2022-11-21T08:05:42;96916.22;;;-1.66;84.60
21401;BME280;18038;50.166;18.908;2022-11-21T08:07:50;96918.56;;;-1.63;83.42
21401;BME280;18038;50.166;18.908;2022-11-21T08:09:56;96916.09;;;-1.55;83.35
21401;BME280;18038;50.166;18.908;2022-11-21T08:12:21;96917.75;;;-1.44;83.28
21401;BME280;18038;50.166;18.908;2022-11-21T08:14:28;96911.72;;;-1.35;83.11
21401;BME280;18038;50.166;18.908;2022-11-21T08:16:51;96908.41;;;-1.17;82.47
21401;BME280;18038;50.166;18.908;2022-11-21T08:18:58;96910.75;;;-1.24;82.27
21401;BME280;18038;50.166;18.908;2022-11-21T16:18:59;96855.59;;;4.60;71.75
21401;BME280;18038;50.166;18.908;2022-11-21T16:21:12;96856.22;;;4.62;71.98
21401;BME280;18038;50.166;18.908;2022-11-21T16:23:19;96860.22;;;4.58;72.20
21401;BME280;18038;50.166;18.908;2022-11-21T16:25:25;96851.94;;;4.61;72.27
21401;BME280;18038;50.166;18.908;2022-11-21T16:27:31;96856.81;;;4.50;72.83
21401;BME280;18038;50.166;18.908;2022-11-21T16:29:37;96858.09;;;4.54;72.24
21401;BME280;18038;50.166;18.908;2022-11-21T16:31:43;96850.88;;;4.48;72.77
21401;BME280;18038;50.166;18.908;2022-11-21T16:34:00;96854.63;;;4.53;72.58
21401;BME280;18038;50.166;18.908;2022-11-21T16:36:21;96853.63;;;4.54;72.58
21401;BME280;18038;50.166;18.908;2022-11-21T16:38:28;96852.28;;;4.35;72.85
21401;BME280;18038;50.166;18.908;2022-11-21T16:40:37;96851.56;;;4.41;72.99
21401;BME280;18038;50.166;18.908;2022-11-21T16:42:43;96859.25;;;4.51;72.71
21401;BME280;18038;50.166;18.908;2022-11-21T16:44:51;96846.25;;;4.50;72.26
21401;BME280;18038;50.166;18.908;2022-11-21T16:46:58;96850.25;;;4.46;72.20
21401;BME280;18038;50.166;18.908;2022-11-21T16:49:17;96850.16;;;4.31;72.98
21401;BME280;18038;50.166;18.908;2022-11-21T16:51:26;96849.34;;;4.30;73.27
21401;BME280;18038;50.166;18.908;2022-11-21T16:53:33;96858.41;;;4.28;73.32
21401;BME280;18038;50.166;18.908;2022-11-21T16:55:39;96860.38;;;4.34;73.09
21401;BME280;18038;50.166;18.908;2022-11-21T16:57:45;96859.31;;;4.43;72.92
21401;BME280;18038;50.166;18.908;2022-11-21T16:59:51;96861.75;;;4.53;72.52
21401;BME280;18038;50.166;18.908;2022-11-21T17:02:00;96862.59;;;4.45;72.73
21401;BME280;18038;50.166;18.908;2022-11-21T17:04:09;96869.22;;;4.41;72.72
21401;BME280;18038;50.166;18.908;2022-11-21T17:06:23;96865.66;;;4.26;73.10
21401;BME280;18038;50.166;18.908;2022-11-21T17:08:35;96866.28;;;4.36;73.15
21401;BME280;18038;50.166;18.908;2022-11-21T17:10:42;96856.56;;;4.36;72.99
21401;BME280;18038;50.166;18.908;2022-11-21T17:12:48;96864.75;;;4.41;73.05
21401;BME280;18038;50.166;18.908;2022-11-21T17:14:54;96864.44;;;4.45;73.35
21401;BME280;18038;50.166;18.908;2022-11-21T17:17:00;96872.44;;;4.51;73.15
21401;BME280;18038;50.166;18.908;2022-11-21T17:19:10;96872.75;;;4.56;72.86
21401;BME280;18038;50.166;18.908;2022-11-21T17:21:17;96869.75;;;4.59;73.03
21401;BME280;18038;50.166;18.908;2022-11-21T17:23:36;96873.09;;;4.53;72.93
21401;BME280;18038;50.166;18.908;2022-11-21T17:25:43;96869.47;;;4.54;73.56
21401;BME280;18038;50.166;18.908;2022-11-21T17:27:49;96859.63;;;4.48;73.42
21401;BME280;18038;50.166;18.908;2022-11-21T17:29:55;96873.09;;;4.53;73.56
21401;BME280;18038;50.166;18.908;2022-11-21T17:32:04;96854.03;;;4.43;73.74
21401;BME280;18038;50.166;18.908;2022-11-21T17:34:10;96866.06;;;4.46;73.97
21401;BME280;18038;50.166;18.908;2022-11-21T17:36:18;96850.94;;;4.39;73.67
21401;BME280;18038;50.166;18.908;2022-11-21T17:38:26;96851.63;;;4.33;74.03
21401;BME280;18038;50.166;18.908;2022-11-21T17:40:35;96863.59;;;4.44;73.86
21401;BME280;18038;50.166;18.908;2022-11-21T17:42:40;96869.50;;;4.46;74.06
21401;BME280;18038;50.166;18.908;2022-11-21T17:44:47;96874.28;;;4.51;73.86
21401;BME280;18038;50.166;18.908;2022-11-21T17:46:53;96871.13;;;4.55;73.96
21401;BME280;18038;50.166;18.908;2022-11-21T17:49:00;96874.38;;;4.57;73.80
21401;BME280;18038;50.166;18.908;2022-11-21T17:51:10;96869.47;;;4.54;74.06
21401;BME280;18038;50.166;18.908;2022-11-21T17:53:18;96873.97;;;4.46;74.34
21401;BME280;18038;50.166;18.908;2022-11-21T17:55:23;96856.53;;;4.45;74.45
21401;BME280;18038;50.166;18.908;2022-11-21T17:57:32;96876.56;;;4.54;74.17
21401;BME280;18038;50.166;18.908;2022-11-21T17:59:44;96872.94;;;4.55;74.61
21401;BME280;18038;50.166;18.908;2022-11-21T18:01:50;96867.44;;;4.64;73.97
21401;BME280;18038;50.166;18.908;2022-11-21T18:03:58;96865.56;;;4.73;73.90
21401;BME280;18038;50.166;18.908;2022-11-21T18:06:11;96881.38;;;4.81;73.79
21401;BME280;18038;50.166;18.908;2022-11-21T18:08:19;96887.50;;;4.74;73.86
21401;BME280;18038;50.166;18.908;2022-11-21T18:10:25;96883.94;;;4.67;74.17
21401;BME280;18038;50.166;18.908;2022-11-21T18:12:47;96879.38;;;4.52;74.70
21401;BME280;18038;50.166;18.908;2022-11-21T18:14:53;96883.34;;;4.48;75.39
21401;BME280;18038;50.166;18.908;2022-11-21T18:16:59;96879.91;;;4.48;75.68
21401;BME280;18038;50.166;18.908;2022-11-21T18:19:05;96885.69;;;4.43;75.60
21401;BME280;18038;50.166;18.908;2022-11-21T18:21:14;96873.88;;;4.31;75.86
21401;BME280;18038;50.166;18.908;2022-11-21T18:34:52;96878.84;;;4.57;75.12
21401;BME280;18038;50.166;18.908;2022-11-21T18:36:59;96884.78;;;4.59;75.15
21401;BME280;18038;50.166;18.908;2022-11-21T18:39:05;96873.22;;;4.60;75.33
21401;BME280;18038;50.166;18.908;2022-11-21T18:41:18;96881.59;;;4.72;74.93
21401;BME280;18038;50.166;18.908;2022-11-21T18:43:26;96884.22;;;4.72;74.60
21401;BME280;18038;50.166;18.908;2022-11-21T18:45:32;96884.31;;;4.78;74.46
21401;BME280;18038;50.166;18.908;2022-11-21T18:47:38;96888.44;;;4.81;74.27
21401;BME280;18038;50.166;18.908;2022-11-21T18:49:46;96885.03;;;4.72;74.36
21401;BME280;18038;50.166;18.908;2022-11-21T18:51:54;96899.03;;;4.73;74.29
21401;BME280;18038;50.166;18.908;2022-11-21T18:54:03;96896.06;;;4.76;74.39
21401;BME280;18038;50.166;18.908;2022-11-21T18:56:14;96891.44;;;4.78;74.13
21401;BME280;18038;50.166;18.908;2022-11-21T18:58:22;96900.34;;;4.77;74.39
21401;BME280;18038;50.166;18.908;2022-11-21T19:00:28;96906.34;;;4.71;74.21
21401;BME280;18038;50.166;18.908;2022-11-21T19:02:35;96902.41;;;4.67;74.27
21401;BME280;18038;50.166;18.908;2022-11-21T19:04:41;96905.84;;;4.67;74.67
21401;BME280;18038;50.166;18.908;2022-11-21T19:06:47;96906.50;;;4.69;74.07
21401;BME280;18038;50.166;18.908;2022-11-21T19:09:03;96913.59;;;4.69;74.25
21401;BME280;18038;50.166;18.908;2022-11-21T19:11:11;96910.66;;;4.63;74.69
21401;BME280;18038;50.166;18.908;2022-11-21T19:13:19;96908.13;;;4.70;74.60
21401;BME280;18038;50.166;18.908;2022-11-21T19:15:26;96908.78;;;4.72;74.13
21401;BME280;18038;50.166;18.908;2022-11-21T19:17:49;96910.59;;;4.72;74.05
21401;BME280;18038;50.166;18.908;2022-11-21T19:22:27;96907.50;;;4.68;74.33
21401;BME280;18038;50.166;18.908;2022-11-21T19:24:36;96914.25;;;4.62;74.31
21401;BME280;18038;50.166;18.908;2022-11-21T19:26:42;96912.44;;;4.71;74.23
21401;BME280;18038;50.166;18.908;2022-11-21T19:31:20;96917.13;;;4.84;73.29
21401;BME280;18038;50.166;18.908;2022-11-21T19:33:28;96921.41;;;4.85;73.25
21401;BME280;18038;50.166;18.908;2022-11-21T19:35:35;96925.44;;;4.73;73.78
21401;BME280;18038;50.166;18.908;2022-11-21T19:37:42;96926.59;;;4.70;74.22
21401;BME280;18038;50.166;18.908;2022-11-21T19:39:51;96920.47;;;4.78;73.75
21401;BME280;18038;50.166;18.908;2022-11-21T19:41:58;96920.88;;;4.90;73.24
21401;BME280;18038;50.166;18.908;2022-11-21T19:44:04;96924.97;;;4.69;73.66
21401;BME280;18038;50.166;18.908;2022-11-21T19:46:22;96927.44;;;4.71;74.02
21401;BME280;18038;50.166;18.908;2022-11-21T19:48:33;96928.63;;;4.68;73.93
21401;BME280;18038;50.166;18.908;2022-11-21T19:50:39;96929.25;;;4.62;73.96
21401;BME280;18038;50.166;18.908;2022-11-21T19:52:53;96936.06;;;4.56;74.22
21401;BME280;18038;50.166;18.908;2022-11-21T19:55:04;96932.91;;;4.61;73.84
21401;BME280;18038;50.166;18.908;2022-11-21T19:57:11;96941.72;;;4.45;74.41
21401;BME280;18038;50.166;18.908;2022-11-21T19:59:17;96941.69;;;4.53;73.76
21401;BME280;18038;50.166;18.908;2022-11-21T20:01:27;96941.47;;;4.63;73.08
21401;BME280;18038;50.166;18.908;2022-11-21T20:03:37;96949.09;;;4.58;73.31
21401;BME280;18038;50.166;18.908;2022-11-21T20:05:45;96944.63;;;4.58;72.77
21401;BME280;18038;50.166;18.908;2022-11-21T20:07:54;96939.16;;;4.60;72.78
21401;BME280;18038;50.166;18.908;2022-11-21T20:10:13;96953.88;;;4.54;72.66
21401;BME280;18038;50.166;18.908;2022-11-21T20:12:19;96947.81;;;4.46;73.38
21401;BME280;18038;50.166;18.908;2022-11-21T20:14:26;96958.06;;;4.40;73.37
21401;BME280;18038;50.166;18.908;2022-11-21T20:16:35;96962.84;;;4.37;73.30
21401;BME280;18038;50.166;18.908;2022-11-21T20:18:43;96960.69;;;4.40;73.15
21401;BME280;18038;50.166;18.908;2022-11-21T20:20:50;96959.22;;;4.38;72.98
21401;BME280;18038;50.166;18.908;2022-11-21T20:22:56;96959.69;;;4.50;72.81
21401;BME280;18038;50.166;18.908;2022-11-21T20:25:03;96960.50;;;4.50;72.41
21401;BME280;18038;50.166;18.908;2022-11-21T20:27:14;96961.47;;;4.49;72.15
21401;BME280;18038;50.166;18.908;2022-11-21T20:29:20;96966.44;;;4.52;72.37
21401;BME280;18038;50.166;18.908;2022-11-21T20:31:29;96960.31;;;4.52;72.61
21401;BME280;18038;50.166;18.908;2022-11-21T20:33:39;96961.97;;;4.53;72.09
21401;BME280;18038;50.166;18.908;2022-11-21T20:35:47;96956.19;;;4.49;72.08
21401;BME280;18038;50.166;18.908;2022-11-21T20:37:53;96957.34;;;4.47;72.11
21401;BME280;18038;50.166;18.908;2022-11-21T20:40:00;96951.22;;;4.54;72.16
21401;BME280;18038;50.166;18.908;2022-11-21T20:42:06;96958.63;;;4.59;71.92
21401;BME280;18038;50.166;18.908;2022-11-21T20:44:17;96957.63;;;4.68;71.32
21401;BME280;18038;50.166;18.908;2022-11-21T20:46:46;96957.97;;;4.65;71.26
21401;BME280;18038;50.166;18.908;2022-11-21T20:48:53;96971.66;;;4.60;71.37
21401;BME280;18038;50.166;18.908;2022-11-21T20:51:02;96963.59;;;4.54;72.16
21401;BME280;18038;50.166;18.908;2022-11-21T20:53:30;96965.09;;;4.48;71.88
21401;BME280;18038;50.166;18.908;2022-11-21T20:55:59;96959.31;;;4.53;71.85
21401;BME280;18038;50.166;18.908;2022-11-21T20:58:07;96956.03;;;4.51;72.05
21401;BME280;18038;50.166;18.908;2022-11-21T21:00:18;96957.16;;;4.56;72.24
21401;BME280;18038;50.166;18.908;2022-11-21T21:02:24;96952.09;;;4.47;71.92
21401;BME280;18038;50.166;18.908;2022-11-21T21:04:30;96949.47;;;4.38;72.30
21401;BME280;18038;50.166;18.908;2022-11-21T21:06:39;96941.25;;;4.33;72.53
21401;BME280;18038;50.166;18.908;2022-11-21T21:08:46;96943.44;;;4.30;72.47
21401;BME280;18038;50.166;18.908;2022-11-21T21:11:00;96938.97;;;4.30;72.95
21401;BME280;18038;50.166;18.908;2022-11-21T21:13:28;96940.94;;;4.28;72.55
21401;BME280;18038;50.166;18.908;2022-11-21T21:15:38;96948.53;;;4.31;72.61
21401;BME280;18038;50.166;18.908;2022-11-21T21:17:44;96959.25;;;4.30;72.87
21401;BME280;18038;50.166;18.908;2022-11-21T21:19:53;96961.41;;;4.26;72.41
21401;BME280;18038;50.166;18.908;2022-11-21T21:22:00;96960.16;;;4.06;73.21
21401;BME280;18038;50.166;18.908;2022-11-21T21:24:08;96964.66;;;3.89;73.89
21401;BME280;18038;50.166;18.908;2022-11-21T21:26:20;96955.94;;;3.80;74.59
21401;BME280;18038;50.166;18.908;2022-11-21T21:28:27;96959.38;;;3.97;73.89
21401;BME280;18038;50.166;18.908;2022-11-21T21:30:40;96956.41;;;4.00;73.60
21401;BME280;18038;50.166;18.908;2022-11-21T21:32:47;96952.28;;;3.97;73.78
21401;BME280;18038;50.166;18.908;2022-11-21T21:34:53;96948.31;;;3.93;73.78
21401;BME280;18038;50.166;18.908;2022-11-21T21:37:01;96962.34;;;3.94;73.44
21401;BME280;18038;50.166;18.908;2022-11-21T21:39:10;96952.13;;;3.91;73.12
21401;BME280;18038;50.166;18.908;2022-11-21T21:41:16;96949.00;;;3.87;73.18
21401;BME280;18038;50.166;18.908;2022-11-21T21:43:23;96930.13;;;3.75;73.55
21401;BME280;18038;50.166;18.908;2022-11-21T21:45:30;96936.34;;;3.74;73.04
21401;BME280;18038;50.166;18.908;2022-11-21T21:47:39;96932.78;;;3.35;75.41
21401;BME280;18038;50.166;18.908;2022-11-21T21:49:46;96928.50;;;3.17;76.07
21401;BME280;18038;50.166;18.908;2022-11-21T21:51:53;96928.03;;;3.14;75.55
21401;BME280;18038;50.166;18.908;2022-11-21T21:53:59;96923.91;;;3.11;75.92
21401;BME280;18038;50.166;18.908;2022-11-21T21:56:06;96927.22;;;3.13;75.87
21401;BME280;18038;50.166;18.908;2022-11-21T21:58:13;96921.28;;;3.11;76.22
21401;BME280;18038;50.166;18.908;2022-11-21T22:00:20;96926.22;;;3.14;75.29
21401;BME280;18038;50.166;18.908;2022-11-21T22:02:26;96921.13;;;3.13;75.19
21401;BME280;18038;50.166;18.908;2022-11-21T22:04:35;96915.19;;;3.02;75.37
21401;BME280;18038;50.166;18.908;2022-11-21T22:06:42;96920.28;;;2.79;75.67
21401;BME280;18038;50.166;18.908;2022-11-21T22:08:49;96918.22;;;2.40;78.13
21401;BME280;18038;50.166;18.908;2022-11-21T22:11:01;96920.75;;;2.08;78.38
21401;BME280;18038;50.166;18.908;2022-11-21T22:13:09;96913.81;;;1.98;79.10
21401;BME280;18038;50.166;18.908;2022-11-21T22:15:15;96914.09;;;1.95;79.57
21401;BME280;18038;50.166;18.908;2022-11-21T22:17:23;96908.34;;;1.92;79.03
21401;BME280;18038;50.166;18.908;2022-11-21T22:19:29;96914.78;;;1.97;79.40
21401;BME280;18038;50.166;18.908;2022-11-21T22:21:39;96903.34;;;2.07;77.92
21401;BME280;18038;50.166;18.908;2022-11-21T22:23:46;96900.03;;;2.05;78.08
21401;BME280;18038;50.166;18.908;2022-11-21T22:26:13;96898.91;;;2.07;78.08
21401;BME280;18038;50.166;18.908;2022-11-21T22:28:20;96898.09;;;2.07;77.86
21401;BME280;18038;50.166;18.908;2022-11-21T22:30:27;96899.03;;;1.97;78.09
21401;BME280;18038;50.166;18.908;2022-11-21T22:32:34;96901.78;;;1.53;80.19
21401;BME280;18038;50.166;18.908;2022-11-21T22:34:40;96891.09;;;1.55;80.44
21401;BME280;18038;50.166;18.908;2022-11-21T22:36:50;96890.50;;;1.61;80.44
21401;BME280;18038;50.166;18.908;2022-11-21T22:38:56;96892.56;;;1.49;80.07
21401;BME280;18038;50.166;18.908;2022-11-21T22:41:04;96892.19;;;1.44;80.62
21401;BME280;18038;50.166;18.908;2022-11-21T22:43:13;96887.16;;;1.25;80.64